RAM703 LFPG-GMMN
Flight info
| Callsign | RAM703 |
|---|---|
| Flight time | N/A |
| Altitude | 37000 |
| Route | AGOPA6G AGOPA DCT ARKIP DCT ARMAL DCT ARTAX DCT BEBIX DCT LMG DCT UVELI DCT OSMOB DCT ARVID DCT PPN DCT NOLSA DCT ALEPO DCT VASUM DCT BANEV DCT BAN DCT GOTOR DCT KAMPO DCT MONTO DCT MOLIN DCT VJF N10 LINTO UN10 BARIS UB11 TUSOR TUSOR3A |
| Aircraft | B738/M-SDE2E3FGHIRWXY/LB1 |
Departure
| Time | 2026-05-08 20:31 |
|---|---|
| Airport | Charles de Gaulle International Airport (LFPG) |
Arrival
| Time | N/A |
|---|---|
| Airport | Mohammed V International Airport (GMMN) |
| Time | Latitude | Longitude | Altitude | Speed | Heading |
|---|---|---|---|---|---|
| 2026-05-08 19:48 | 49.00529 | 2.56181 | 325 ft | 0 kts | 166° |
| 2026-05-08 20:14 | 49.00539 | 2.56178 | 360 ft | 4 kts | 164° |
| 2026-05-08 20:14 | 49.00565 | 2.56165 | 361 ft | 4 kts | 160° |
| 2026-05-08 20:15 | 49.00589 | 2.56153 | 362 ft | 2 kts | 166° |
| 2026-05-08 20:15 | 49.00606 | 2.56150 | 358 ft | 4 kts | 213° |
| 2026-05-08 20:15 | 49.00614 | 2.56178 | 358 ft | 4 kts | 268° |
| 2026-05-08 20:15 | 49.00615 | 2.56216 | 352 ft | 2 kts | 265° |
| 2026-05-08 20:16 | 49.00615 | 2.56218 | 352 ft | 1 kts | 265° |
| 2026-05-08 20:21 | 49.00615 | 2.56217 | 352 ft | 0 kts | 265° |
| 2026-05-08 20:21 | 49.00614 | 2.56203 | 355 ft | 3 kts | 265° |
| 2026-05-08 20:21 | 49.00612 | 2.56154 | 358 ft | 6 kts | 265° |
| 2026-05-08 20:22 | 49.00603 | 2.56075 | 358 ft | 9 kts | 255° |
| 2026-05-08 20:22 | 49.00580 | 2.55983 | 352 ft | 10 kts | 252° |
| 2026-05-08 20:22 | 49.00570 | 2.55880 | 354 ft | 9 kts | 265° |
| 2026-05-08 20:22 | 49.00564 | 2.55772 | 359 ft | 11 kts | 265° |
| 2026-05-08 20:23 | 49.00559 | 2.55674 | 352 ft | 8 kts | 265° |
| 2026-05-08 20:23 | 49.00558 | 2.55655 | 352 ft | 0 kts | 265° |
| 2026-05-08 20:25 | 49.00558 | 2.55654 | 352 ft | 0 kts | 265° |
| 2026-05-08 20:25 | 49.00556 | 2.55632 | 352 ft | 4 kts | 265° |
| 2026-05-08 20:25 | 49.00553 | 2.55563 | 356 ft | 9 kts | 265° |
| 2026-05-08 20:26 | 49.00548 | 2.55462 | 357 ft | 3 kts | 262° |
| 2026-05-08 20:26 | 49.00536 | 2.55406 | 352 ft | 8 kts | 245° |
| 2026-05-08 20:26 | 49.00481 | 2.55338 | 354 ft | 14 kts | 191° |
| 2026-05-08 20:26 | 49.00374 | 2.55363 | 352 ft | 16 kts | 163° |
| 2026-05-08 20:27 | 49.00281 | 2.55402 | 354 ft | 16 kts | 165° |
| 2026-05-08 20:27 | 49.00156 | 2.55456 | 355 ft | 19 kts | 163° |
| 2026-05-08 20:27 | 49.00047 | 2.55504 | 357 ft | 19 kts | 164° |
| 2026-05-08 20:27 | 48.99924 | 2.55563 | 355 ft | 15 kts | 156° |
| 2026-05-08 20:28 | 48.99847 | 2.55688 | 361 ft | 17 kts | 116° |
| 2026-05-08 20:28 | 48.99814 | 2.55858 | 361 ft | 19 kts | 104° |
| 2026-05-08 20:28 | 48.99808 | 2.55892 | 356 ft | 0 kts | 104° |
| 2026-05-08 20:28 | 48.99803 | 2.55924 | 357 ft | 6 kts | 103° |
| 2026-05-08 20:29 | 48.99799 | 2.55950 | 360 ft | 0 kts | 103° |
| 2026-05-08 20:29 | 48.99787 | 2.55988 | 354 ft | 9 kts | 123° |
| 2026-05-08 20:29 | 48.99713 | 2.56035 | 353 ft | 7 kts | 179° |
| 2026-05-08 20:29 | 48.99639 | 2.56051 | 356 ft | 10 kts | 156° |
| 2026-05-08 20:30 | 48.99616 | 2.56111 | 359 ft | 7 kts | 100° |
| 2026-05-08 20:30 | 48.99616 | 2.56133 | 355 ft | 1 kts | 85° |
| 2026-05-08 20:30 | 48.99635 | 2.56468 | 354 ft | 73 kts | 85° |
| 2026-05-08 20:30 | 48.99696 | 2.57655 | 357 ft | 148 kts | 86° |
| 2026-05-08 20:31 | 48.99795 | 2.59359 | 964 ft | 155 kts | 79° |
| 2026-05-08 20:31 | 48.99948 | 2.60920 | 2115 ft | 144 kts | 87° |
| 2026-05-08 20:31 | 48.99972 | 2.62409 | 3028 ft | 138 kts | 86° |
| 2026-05-08 20:31 | 49.00040 | 2.63863 | 3759 ft | 137 kts | 86° |
| 2026-05-08 20:32 | 49.00112 | 2.65310 | 4337 ft | 144 kts | 86° |
| 2026-05-08 20:32 | 49.00199 | 2.67020 | 4602 ft | 175 kts | 86° |
| 2026-05-08 20:32 | 49.00295 | 2.68881 | 4859 ft | 200 kts | 86° |
| 2026-05-08 20:32 | 49.00409 | 2.71099 | 5044 ft | 221 kts | 86° |
| 2026-05-08 20:33 | 49.00534 | 2.73540 | 5258 ft | 239 kts | 86° |
| 2026-05-08 20:33 | 49.00665 | 2.76105 | 5679 ft | 247 kts | 86° |
| 2026-05-08 20:33 | 49.00746 | 2.78744 | 6009 ft | 260 kts | 94° |
| 2026-05-08 20:33 | 49.00504 | 2.81541 | 6419 ft | 272 kts | 102° |
| 2026-05-08 20:34 | 49.00131 | 2.84357 | 7094 ft | 276 kts | 102° |
| 2026-05-08 20:34 | 48.99766 | 2.87246 | 7817 ft | 280 kts | 101° |
| 2026-05-08 20:34 | 48.99114 | 2.93210 | 9194 ft | 291 kts | 100° |
| 2026-05-08 20:35 | 48.98787 | 2.96275 | 9866 ft | 296 kts | 103° |
| 2026-05-08 20:35 | 48.98005 | 2.99163 | 10370 ft | 302 kts | 130° |
| 2026-05-08 20:35 | 48.96319 | 3.01153 | 10528 ft | 317 kts | 161° |
| 2026-05-08 20:35 | 48.94146 | 3.01805 | 11001 ft | 322 kts | 182° |
| 2026-05-08 20:36 | 48.91947 | 3.01214 | 11640 ft | 323 kts | 203° |
| 2026-05-08 20:36 | 48.90050 | 2.99423 | 12117 ft | 325 kts | 225° |
| 2026-05-08 20:36 | 48.88834 | 2.96596 | 12132 ft | 321 kts | 251° |
| 2026-05-08 20:36 | 48.88321 | 2.93278 | 12171 ft | 325 kts | 260° |
| 2026-05-08 20:37 | 48.87936 | 2.89990 | 12168 ft | 323 kts | 256° |
| 2026-05-08 20:37 | 48.87178 | 2.87186 | 12156 ft | 322 kts | 237° |
| 2026-05-08 20:37 | 48.85741 | 2.84605 | 12183 ft | 321 kts | 226° |
| 2026-05-08 20:37 | 48.84165 | 2.82195 | 12181 ft | 321 kts | 226° |
| 2026-05-08 20:38 | 48.82636 | 2.79715 | 12160 ft | 322 kts | 230° |
| 2026-05-08 20:38 | 48.81237 | 2.77015 | 12417 ft | 328 kts | 234° |
| 2026-05-08 20:38 | 48.79883 | 2.74237 | 12912 ft | 334 kts | 234° |
| 2026-05-08 20:38 | 48.78634 | 2.71690 | 13625 ft | 328 kts | 233° |
| 2026-05-08 20:39 | 48.77244 | 2.68908 | 14243 ft | 331 kts | 233° |
| 2026-05-08 20:39 | 48.75830 | 2.66136 | 14903 ft | 332 kts | 233° |
| 2026-05-08 20:39 | 48.74386 | 2.63418 | 15648 ft | 330 kts | 230° |
| 2026-05-08 20:39 | 48.72777 | 2.60951 | 16391 ft | 329 kts | 222° |
| 2026-05-08 20:40 | 48.70943 | 2.58885 | 17152 ft | 327 kts | 214° |
| 2026-05-08 20:40 | 48.68982 | 2.57160 | 17965 ft | 324 kts | 211° |
| 2026-05-08 20:40 | 48.67011 | 2.55544 | 18690 ft | 321 kts | 211° |
| 2026-05-08 20:40 | 48.65035 | 2.53892 | 19097 ft | 327 kts | 212° |
| 2026-05-08 20:41 | 48.63062 | 2.52177 | 19646 ft | 327 kts | 213° |
| 2026-05-08 20:41 | 48.61093 | 2.50409 | 20130 ft | 330 kts | 213° |
| 2026-05-08 20:41 | 48.59124 | 2.48600 | 20655 ft | 331 kts | 214° |
| 2026-05-08 20:41 | 48.57263 | 2.46866 | 21146 ft | 333 kts | 214° |
| 2026-05-08 20:42 | 48.55295 | 2.45019 | 21671 ft | 333 kts | 214° |
| 2026-05-08 20:42 | 48.53326 | 2.43163 | 22219 ft | 334 kts | 214° |
| 2026-05-08 20:42 | 48.51356 | 2.41303 | 22741 ft | 333 kts | 214° |
| 2026-05-08 20:42 | 48.49396 | 2.39452 | 23301 ft | 333 kts | 214° |
| 2026-05-08 20:43 | 48.47440 | 2.37607 | 23817 ft | 331 kts | 214° |
| 2026-05-08 20:43 | 48.45517 | 2.35793 | 24290 ft | 329 kts | 214° |
| 2026-05-08 20:43 | 48.43584 | 2.33972 | 24766 ft | 326 kts | 214° |
| 2026-05-08 20:43 | 48.41665 | 2.32166 | 25248 ft | 323 kts | 214° |
| 2026-05-08 20:44 | 48.39774 | 2.30388 | 25741 ft | 319 kts | 214° |
| 2026-05-08 20:44 | 48.37878 | 2.28605 | 25958 ft | 327 kts | 214° |
| 2026-05-08 20:44 | 48.35900 | 2.26743 | 25932 ft | 341 kts | 214° |
| 2026-05-08 20:44 | 48.33864 | 2.24830 | 26075 ft | 350 kts | 214° |
| 2026-05-08 20:45 | 48.31757 | 2.22853 | 26107 ft | 363 kts | 213° |
| 2026-05-08 20:45 | 48.30319 | 2.21506 | 26185 ft | 370 kts | 213° |
| 2026-05-08 20:45 | 48.27336 | 2.18714 | 26274 ft | 385 kts | 213° |
| 2026-05-08 20:45 | 48.25059 | 2.16588 | 26360 ft | 395 kts | 213° |
| 2026-05-08 20:46 | 48.22691 | 2.14378 | 26426 ft | 406 kts | 213° |
| 2026-05-08 20:46 | 48.20260 | 2.12113 | 26498 ft | 415 kts | 213° |
| 2026-05-08 20:46 | 48.17787 | 2.09810 | 26715 ft | 421 kts | 213° |
| 2026-05-08 20:46 | 48.15300 | 2.07498 | 27167 ft | 419 kts | 213° |
| 2026-05-08 20:47 | 48.12826 | 2.05200 | 27640 ft | 418 kts | 213° |
| 2026-05-08 20:47 | 48.10346 | 2.02907 | 27918 ft | 421 kts | 212° |
| 2026-05-08 20:47 | 48.07660 | 2.01036 | 27974 ft | 432 kts | 194° |
| 2026-05-08 20:47 | 48.04647 | 2.00730 | 28079 ft | 440 kts | 175° |
| 2026-05-08 20:48 | 48.01655 | 2.01298 | 28386 ft | 442 kts | 172° |
| 2026-05-08 20:48 | 47.95426 | 2.02325 | 28445 ft | 457 kts | 179° |
| 2026-05-08 20:49 | 47.88979 | 2.02366 | 28585 ft | 469 kts | 181° |
| 2026-05-08 20:49 | 47.85697 | 2.02385 | 28687 ft | 473 kts | 180° |
| 2026-05-08 20:49 | 47.82392 | 2.02485 | 28901 ft | 475 kts | 179° |
| 2026-05-08 20:49 | 47.79090 | 2.02652 | 29324 ft | 473 kts | 178° |
| 2026-05-08 20:50 | 47.75822 | 2.02802 | 29824 ft | 468 kts | 180° |
| 2026-05-08 20:50 | 47.72573 | 2.02547 | 30119 ft | 467 kts | 191° |
| 2026-05-08 20:50 | 47.69551 | 2.00797 | 30055 ft | 470 kts | 215° |
| 2026-05-08 20:50 | 47.67037 | 1.97867 | 30615 ft | 461 kts | 221° |
| 2026-05-08 20:51 | 47.64577 | 1.94813 | 30776 ft | 463 kts | 218° |
| 2026-05-08 20:51 | 47.61762 | 1.92483 | 30892 ft | 466 kts | 199° |
| 2026-05-08 20:51 | 47.58646 | 1.91242 | 31337 ft | 461 kts | 193° |
| 2026-05-08 20:51 | 47.55508 | 1.90196 | 31533 ft | 462 kts | 195° |
| 2026-05-08 20:52 | 47.52531 | 1.88477 | 31677 ft | 462 kts | 215° |
| 2026-05-08 20:52 | 47.50131 | 1.85367 | 32108 ft | 455 kts | 226° |
| 2026-05-08 20:52 | 47.47953 | 1.81967 | 32277 ft | 456 kts | 226° |
| 2026-05-08 20:52 | 47.45561 | 1.78896 | 32372 ft | 459 kts | 208° |
| 2026-05-08 20:53 | 47.42560 | 1.77345 | 32643 ft | 456 kts | 192° |
| 2026-05-08 20:53 | 47.39438 | 1.76497 | 32867 ft | 457 kts | 191° |
| 2026-05-08 20:53 | 47.36386 | 1.75431 | 33004 ft | 457 kts | 203° |
| 2026-05-08 20:53 | 47.33746 | 1.72865 | 33157 ft | 455 kts | 224° |
| 2026-05-08 20:54 | 47.31532 | 1.69560 | 33436 ft | 454 kts | 226° |
| 2026-05-08 20:54 | 47.29268 | 1.66326 | 33579 ft | 454 kts | 216° |
| 2026-05-08 20:54 | 47.26462 | 1.64225 | 33571 ft | 455 kts | 198° |
| 2026-05-08 20:54 | 47.23466 | 1.62727 | 33723 ft | 453 kts | 201° |
| 2026-05-08 20:55 | 47.20648 | 1.60790 | 34348 ft | 442 kts | 210° |
| 2026-05-08 20:55 | 47.18041 | 1.58463 | 34767 ft | 436 kts | 210° |
| 2026-05-08 20:55 | 47.15402 | 1.56314 | 35093 ft | 431 kts | 207° |
| 2026-05-08 20:55 | 47.12741 | 1.54283 | 35240 ft | 432 kts | 207° |
| 2026-05-08 20:56 | 47.10082 | 1.52253 | 35586 ft | 425 kts | 207° |
| 2026-05-08 20:56 | 47.07526 | 1.50280 | 36127 ft | 416 kts | 207° |
| 2026-05-08 20:56 | 47.05008 | 1.48313 | 36662 ft | 405 kts | 207° |
| 2026-05-08 20:56 | 47.02550 | 1.46374 | 37019 ft | 400 kts | 207° |
| 2026-05-08 20:57 | 47.00078 | 1.44416 | 36956 ft | 404 kts | 207° |
| 2026-05-08 20:57 | 46.95105 | 1.40467 | 36991 ft | 408 kts | 207° |
| 2026-05-08 20:58 | 46.90076 | 1.36478 | 36997 ft | 413 kts | 207° |
| 2026-05-08 20:58 | 46.84983 | 1.32447 | 37000 ft | 418 kts | 207° |
| 2026-05-08 20:59 | 46.79838 | 1.28385 | 36999 ft | 423 kts | 207° |
| 2026-05-08 20:59 | 46.74626 | 1.24279 | 36997 ft | 428 kts | 207° |
| 2026-05-08 21:00 | 46.69395 | 1.20168 | 36988 ft | 432 kts | 207° |
| 2026-05-08 21:00 | 46.64071 | 1.15993 | 36986 ft | 435 kts | 207° |
| 2026-05-08 21:01 | 46.58714 | 1.11801 | 36995 ft | 438 kts | 207° |
| 2026-05-08 21:01 | 46.53361 | 1.07621 | 36972 ft | 433 kts | 207° |
| 2026-05-08 21:02 | 46.48125 | 1.03561 | 36952 ft | 423 kts | 206° |
| 2026-05-08 21:02 | 46.45521 | 1.01576 | 36506 ft | 423 kts | 207° |
| 2026-05-08 21:02 | 46.42942 | 0.99539 | 35884 ft | 419 kts | 206° |
| 2026-05-08 21:02 | 46.40345 | 0.97506 | 34724 ft | 432 kts | 206° |
| 2026-05-08 21:03 | 46.37732 | 0.95394 | 34490 ft | 421 kts | 207° |
| 2026-05-08 21:03 | 46.35212 | 0.93340 | 34076 ft | 416 kts | 206° |
| 2026-05-08 21:03 | 46.32661 | 0.91257 | 33126 ft | 423 kts | 206° |
| 2026-05-08 21:03 | 46.30134 | 0.89176 | 32967 ft | 410 kts | 206° |
| 2026-05-08 21:04 | 46.27721 | 0.87195 | 33122 ft | 391 kts | 206° |
| 2026-05-08 21:04 | 46.26163 | 0.85917 | 32745 ft | 390 kts | 206° |
| 2026-05-08 21:04 | 46.23801 | 0.83925 | 32223 ft | 388 kts | 207° |
| 2026-05-08 21:04 | 46.21532 | 0.81928 | 32163 ft | 376 kts | 209° |
| 2026-05-08 21:05 | 46.19357 | 0.79907 | 31986 ft | 366 kts | 209° |
| 2026-05-08 21:05 | 46.17198 | 0.77957 | 31208 ft | 370 kts | 207° |
| 2026-05-08 21:05 | 46.14964 | 0.76030 | 30455 ft | 369 kts | 207° |
| 2026-05-08 21:05 | 46.12831 | 0.74234 | 30571 ft | 343 kts | 206° |
| 2026-05-08 21:06 | 46.10805 | 0.72525 | 30236 ft | 333 kts | 206° |
| 2026-05-08 21:06 | 46.08818 | 0.70848 | 29570 ft | 328 kts | 206° |
| 2026-05-08 21:06 | 46.06957 | 0.69273 | 29696 ft | 289 kts | 206° |
| 2026-05-08 21:06 | 46.05357 | 0.67880 | 29868 ft | 252 kts | 206° |
| 2026-05-08 21:07 | 46.03940 | 0.66618 | 29547 ft | 236 kts | 206° |
| 2026-05-08 21:07 | 46.02603 | 0.65411 | 29090 ft | 218 kts | 206° |
| 2026-05-08 21:07 | 46.01415 | 0.64333 | 28697 ft | 201 kts | 206° |